To NAV CANADA Home Page Login to a new session Search on AWWS site Feedback and Comments Disclaimer Vers la page française équivalente Tips FAQ What's new on the site To the Forecasts and Observations / NOTAM section To "File a Flight Plan" website Publications and other links Update of the User's profile FIC Telephone Numbers My Weather Data Folder Route Weather Data Regional Weather Data Local Weather Data To the Forecasts and Observations / NOTAM section
Request Generated 08/22/2017 at 03:15:48 UTC . Weather information available at that time is displayed.

METAR/TAF

MONTREAL INTL (MIRABEL)/QC    

METAR CYMX 220300Z 25003KT 190V330 25SM FEW150 FEW250 22/19 A2998 RMK
AC1CI1 SLP153 DENSITY ALT 1100FT=
METAR CYMX 220200Z 24004KT 25SM FEW150 SCT250 23/19 A2998 RMK AC1CI2
SLP154 DENSITY ALT 1200FT=
METAR CYMX 220100Z 24003KT 200V260 25SM FEW150 SCT250 23/19 A2998 RMK
AC1CI2 SLP155 DENSITY ALT 1200FT=

TAF CYMX 212338Z 2200/2224 21006KT P6SM FEW190 SCT260
FM220900 18007KT P6SM SCT030 BKN250 PROB30 2209/2213 1/2SM FG
VV002
FM221700 19012G22KT P6SM BKN040 BKN250 PROB30 2218/2219
VRB25G35KT 2SM +TSRA BKN030CB
FM221900 26015G25KT 4SM SHRA OVC040 TEMPO 2219/2222 VRB25G40KT
1SM +TSRA BKN015 OVC025CB PROB30 2219/2221 VRB35G55KT 1/2SM
+TSGRRA BKN008 OVC020CB
FM222200 23012KT 4SM -SHRA BR BKN006 OVC012
RMK NXT FCST BY 220600Z=
Your time UTC time
Weather data provided by Environment Canada and NAV CANADA